Terminal Aerodrome Forecast
Issued by NWS

Home | Current Version | Previous Version | Graphics & Text | Print | Product List | Glossary On
Versions: 1 2 3 4 5 6 7 8 9 10 11 12 13 14 15 16 17 18 19 20 21 22
906
FTUS43 KGRB 260231 AAA
TAFMTW
TAF AMD
KMTW 260231Z 2603/2624 06009KT P6SM SCT015 BKN070
      TEMPO 2603/2605 3SM TSRA OVC015CB
     FM260600 18005KT 5SM BR SCT020 BKN035
     FM261000 18004KT 3SM BR BKN010
     FM261500 21010G17KT P6SM SCT030 BKN040 PROB30 2615/2618 -SHRA
      BKN030=

USA.gov is the U.S. government's official web portal to all federal, state and local government web resources and services.